Etusivu
METAR-TAF:

METAR-TAF

Lentoasemat :

Thule, Grönlanti

Thulen lentotukikohta

Leveyspiiri: 76-32N, Pituuspiiri: 068-42W, korkeus merenpinnasta: 77 m

Tämänhetkinen sää

Tämä raportti tehtiin 57 minuuttia sitten, kello 11.58 UTC
tyyntä
Lämpötila 5°C
Kosteus 70%
Ilmanpaine 1012 hPa
Näkyvyys 10 km tai enemmän
selkeää

METAR: BGTL 191158Z AUTO 00000KT 9999 CLR 05/00 A2989 RMK AO2 SLP106 T00481002 10052 20013 50002

Aika: 09:55 (12:55 UTC)

Sääennuste

Tämä raportti tehtiin 18 tuntia ja 2 minuuttia sitten, kello 18.53 UTC
Ennuste voimassa 18. päivästä klo 18 UTC - 19. päivään klo 23 UTC
Tuuli 9 kn kaakosta, vaihdellen idän/koillisen ja etelän välillä
Näkyvyys: 2101 m
Hajanaisia pilviä 15000 ft:n korkeudessa

TAF: BGTL 181853Z 1818/1923 13009KT 9999 SCT150 QNH2976INS WND 070V170 TX10/1818Z TN02/1906Z LAST NO AMDS AFT 1819 NEXT 2101

Säähavainnot ja -ennusteet yli 4000 lentoasemalta (METAR- ja TAF-raportit).

Käytössä olevat sääasemat on merkitty karttaan keltaisilla ja punaisilla pisteillä.

Aseta hiiri pisteen päälle nähdäksesi sääaseman nimen.

Klikkaa sitten nähdäksesi säähavainnot ja -ennusteet.

Kartan vaihtaminen: klikkaa mustalla rastilla varustettuja vihreitä pisteitä, niin voit zoomata sisään; viivalla varustettua vihreää pistettä, niin voit zoomata ulos tai vihreitä nuolia, niin pääset viereisille kartoille.


METAR-TAF: